createdAt,value
2023-04-18T00:00:28.481Z, 40.16
2023-04-18T00:01:28.477Z, 40.18
2023-04-18T00:02:28.597Z, 40.17
2023-04-18T00:03:28.719Z, 40.14
2023-04-18T00:04:28.699Z, 40.08
2023-04-18T00:05:28.701Z, 40.04
2023-04-18T00:06:28.581Z, 40.04
2023-04-18T00:07:28.629Z, 40.00
2023-04-18T00:08:28.600Z, 39.93
2023-04-18T00:09:28.645Z, 39.93
2023-04-18T00:10:28.599Z, 39.95
2023-04-18T00:11:28.681Z, 39.92
2023-04-18T00:12:28.656Z, 39.91
2023-04-18T00:13:28.653Z, 39.86
2023-04-18T00:14:28.648Z, 39.91
2023-04-18T00:15:28.727Z, 39.85
2023-04-18T00:16:28.709Z, 39.81
2023-04-18T00:17:28.771Z, 39.78
2023-04-18T00:18:28.730Z, 39.81
2023-04-18T00:19:28.753Z, 39.75
2023-04-18T00:20:28.766Z, 39.75
2023-04-18T00:21:28.758Z, 39.70
2023-04-18T00:22:28.820Z, 39.75
2023-04-18T00:23:28.793Z, 39.79
2023-04-18T00:24:28.786Z, 39.75
2023-04-18T00:25:28.792Z, 39.73
2023-04-18T00:26:28.819Z, 39.72
2023-04-18T00:27:28.868Z, 39.67
2023-04-18T00:28:28.859Z, 39.59
2023-04-18T00:29:28.852Z, 39.54
2023-04-18T00:30:28.885Z, 39.52
2023-04-18T00:31:28.951Z, 39.46
2023-04-18T00:32:28.932Z, 39.45
2023-04-18T00:33:28.893Z, 39.41
2023-04-18T00:34:28.926Z, 39.34
2023-04-18T00:35:28.947Z, 39.32
2023-04-18T00:36:28.961Z, 39.39
2023-04-18T00:37:28.956Z, 39.41
2023-04-18T00:38:29.031Z, 39.38
2023-04-18T00:39:29.009Z, 39.40
2023-04-18T00:40:29.076Z, 39.35
2023-04-18T00:41:29.047Z, 39.35
2023-04-18T00:42:29.112Z, 39.29
2023-04-18T00:43:29.077Z, 39.24
2023-04-18T00:44:29.090Z, 39.23
2023-04-18T00:45:29.079Z, 39.22
2023-04-18T00:46:29.186Z, 39.15
2023-04-18T00:47:29.092Z, 39.17
2023-04-18T00:48:29.096Z, 39.19
2023-04-18T00:49:29.099Z, 39.15
2023-04-18T00:50:29.102Z, 39.10
2023-04-18T00:51:29.122Z, 39.10
2023-04-18T00:52:29.140Z, 39.10
2023-04-18T00:53:29.161Z, 39.07
2023-04-18T00:54:29.163Z, 39.06
2023-04-18T00:55:29.255Z, 39.07
2023-04-18T00:56:29.240Z, 39.00
2023-04-18T00:57:29.231Z, 38.97
2023-04-18T00:58:29.240Z, 38.96
2023-04-18T00:59:29.230Z, 38.98
2023-04-18T01:00:29.247Z, 38.93
2023-04-18T01:01:29.318Z, 38.88
2023-04-18T01:02:29.424Z, 38.87
2023-04-18T02:38:05.763Z, 37.21
2023-04-18T02:38:05.832Z, 37.23
2023-04-18T02:38:30.425Z, 37.18
2023-04-18T02:39:30.407Z, 37.17
2023-04-18T02:40:30.495Z, 37.16
2023-04-18T02:41:30.464Z, 37.15
2023-04-18T02:42:30.502Z, 37.15
2023-04-18T02:43:30.487Z, 37.09
2023-04-18T02:44:30.505Z, 37.05
2023-04-18T02:45:30.505Z, 37.06
2023-04-18T02:46:30.578Z, 37.03
2023-04-18T02:47:37.504Z, 37.00
2023-04-18T02:48:30.582Z, 37.02
2023-04-18T02:49:30.576Z, 37.00
2023-04-18T02:50:30.561Z, 37.04
2023-04-18T02:51:30.624Z, 37.03
2023-04-18T02:52:30.602Z, 37.06
2023-04-18T02:53:30.625Z, 37.03
2023-04-18T02:54:30.628Z, 37.00
2023-04-18T02:55:30.618Z, 36.98
2023-04-18T02:56:30.631Z, 37.00
2023-04-18T02:57:30.685Z, 37.00
2023-04-18T02:58:30.670Z, 36.96
2023-04-18T02:59:30.690Z, 36.92
2023-04-18T03:00:30.694Z, 36.88
2023-04-18T03:01:30.729Z, 36.83
2023-04-18T03:02:30.838Z, 36.81
2023-04-18T03:03:30.755Z, 36.82
2023-04-18T03:04:30.761Z, 36.81
2023-04-18T03:05:30.788Z, 36.82
2023-04-18T03:06:30.764Z, 36.79
2023-04-18T03:07:30.901Z, 36.79
2023-04-18T03:08:30.827Z, 36.82
2023-04-18T03:09:30.837Z, 36.80
2023-04-18T03:10:30.808Z, 36.77
2023-04-18T03:11:30.831Z, 36.75
2023-04-18T03:12:30.844Z, 36.70
2023-04-18T03:13:30.851Z, 36.72
2023-04-18T03:14:30.874Z, 36.72
2023-04-18T03:15:30.894Z, 36.73
2023-04-18T03:16:30.899Z, 36.68
2023-04-18T03:17:30.920Z, 36.67
2023-04-18T03:18:30.970Z, 36.62
2023-04-18T03:19:30.962Z, 36.60
2023-04-18T03:20:31.040Z, 36.61
2023-04-18T03:21:30.983Z, 36.60
2023-04-18T03:22:30.987Z, 36.53
2023-04-18T03:23:30.994Z, 36.55
2023-04-18T03:24:31.025Z, 36.56
2023-04-18T03:25:31.026Z, 36.48
2023-04-18T03:26:31.017Z, 36.46
2023-04-18T03:27:31.031Z, 36.51
2023-04-18T03:28:31.079Z, 36.50
2023-04-18T03:29:31.064Z, 36.53
2023-04-18T03:30:31.049Z, 36.47
2023-04-18T03:31:31.185Z, 36.46
2023-04-18T03:32:31.122Z, 36.48
2023-04-18T03:33:31.146Z, 36.46
2023-04-18T03:34:31.148Z, 36.40
2023-04-18T03:35:31.140Z, 36.40
2023-04-18T03:36:31.128Z, 36.40
2023-04-18T03:37:31.142Z, 36.36
2023-04-18T03:38:31.169Z, 37.41
2023-04-18T03:39:31.177Z, 38.28
2023-04-18T03:40:31.194Z, 38.45
2023-04-18T03:41:31.196Z, 38.36
2023-04-18T03:42:31.216Z, 40.90
2023-04-18T03:43:31.224Z, 49.03
2023-04-18T03:44:31.258Z, 53.17
2023-04-18T03:45:31.260Z, 51.30
2023-04-18T03:46:31.369Z, 48.57
2023-04-18T03:47:31.339Z, 45.71
2023-04-18T03:48:31.371Z, 43.22
2023-04-18T03:49:31.344Z, 40.94
2023-04-18T03:50:31.376Z, 38.13
2023-04-18T03:51:31.372Z, 35.98
2023-04-18T03:52:31.374Z, 34.97
2023-04-18T03:53:31.408Z, 34.38
2023-04-18T03:54:31.399Z, 33.89
2023-04-18T03:55:31.439Z, 33.57
2023-04-18T03:56:31.389Z, 36.96
2023-04-18T03:57:31.457Z, 43.16
2023-04-18T03:58:31.440Z, 47.19
2023-04-18T03:59:31.470Z, 49.43
2023-04-18T04:00:31.453Z, 48.74
2023-04-18T04:01:31.478Z, 46.75
2023-04-18T04:02:31.652Z, 44.79
2023-04-18T04:03:31.624Z, 43.00
2023-04-18T04:04:31.557Z, 41.42
2023-04-18T04:05:31.514Z, 39.95
2023-04-18T04:06:31.527Z, 38.45
2023-04-18T04:07:31.548Z, 36.54
2023-04-18T04:08:31.559Z, 34.23
2023-04-18T04:09:31.624Z, 32.64
2023-04-18T04:10:31.617Z, 35.37
2023-04-18T04:11:31.602Z, 41.31
2023-04-18T04:12:31.619Z, 46.04
2023-04-18T04:13:31.614Z, 49.39
2023-04-18T04:14:31.707Z, 50.67
2023-04-18T04:15:31.681Z, 50.10
2023-04-18T04:16:31.723Z, 49.03
2023-04-18T04:17:31.754Z, 47.97
2023-04-18T04:18:31.682Z, 47.55
2023-04-18T04:19:31.697Z, 48.58
2023-04-18T04:20:31.690Z, 50.41
2023-04-18T04:21:31.740Z, 52.47
2023-04-18T04:22:31.751Z, 55.56
2023-04-18T04:23:31.749Z, 59.06
2023-04-18T04:24:31.768Z, 67.42
2023-04-18T04:25:31.846Z, 57.55
2023-04-18T04:26:31.829Z, 52.27
2023-04-18T04:27:31.819Z, 53.18
2023-04-18T04:28:31.846Z, 54.38
2023-04-18T04:29:31.834Z, 56.72
2023-04-18T04:30:31.889Z, 59.47
2023-04-18T04:31:31.889Z, 67.31
2023-04-18T04:32:31.923Z, 56.85
2023-04-18T04:33:31.875Z, 52.88
2023-04-18T04:34:31.896Z, 54.28
2023-04-18T04:35:31.911Z, 55.65
2023-04-18T04:36:31.908Z, 57.66
2023-04-18T04:37:31.981Z, 60.39
2023-04-18T04:38:31.965Z, 67.88
2023-04-18T04:39:31.964Z, 56.30
2023-04-18T04:40:31.987Z, 53.35
2023-04-18T04:41:31.965Z, 54.41
2023-04-18T04:42:32.011Z, 55.45
2023-04-18T04:43:31.991Z, 56.05
2023-04-18T04:44:32.083Z, 57.20
2023-04-18T04:45:32.080Z, 57.31
2023-04-18T04:46:32.073Z, 55.77
2023-04-18T04:47:32.095Z, 54.50
2023-04-18T04:48:32.073Z, 53.23
2023-04-18T04:49:32.048Z, 52.21
2023-04-18T04:50:32.068Z, 51.50
2023-04-18T04:51:32.065Z, 50.96
2023-04-18T04:52:32.096Z, 50.42
2023-04-18T04:53:32.152Z, 49.80
2023-04-18T04:54:32.129Z, 49.02
2023-04-18T04:55:32.206Z, 48.30
2023-04-18T04:56:32.180Z, 47.67
2023-04-18T04:57:32.186Z, 47.12
2023-04-18T04:58:32.186Z, 46.62
2023-04-18T04:59:32.225Z, 46.14
2023-04-18T05:00:32.214Z, 45.66
2023-04-18T05:01:32.253Z, 45.24
2023-04-18T05:02:32.375Z, 44.83
2023-04-18T05:03:32.427Z, 44.41
2023-04-18T05:04:32.412Z, 44.03
2023-04-18T05:05:32.275Z, 43.57
2023-04-18T05:06:32.348Z, 43.17
2023-04-18T05:07:32.318Z, 42.74
2023-04-18T05:08:32.348Z, 42.29
2023-04-18T05:09:32.398Z, 41.85
2023-04-18T05:10:32.339Z, 41.41
2023-04-18T05:11:32.401Z, 41.01
2023-04-18T05:12:32.530Z, 40.49
2023-04-18T05:13:32.385Z, 39.98
2023-04-18T05:14:32.385Z, 39.49
2023-04-18T05:15:32.390Z, 38.95
2023-04-18T05:16:32.401Z, 38.45
2023-04-18T05:17:32.416Z, 37.98
2023-04-18T05:18:34.429Z, 37.62
2023-04-18T05:19:32.401Z, 42.29
2023-04-18T05:20:32.494Z, 49.40
2023-04-18T05:21:32.479Z, 51.41
2023-04-18T05:22:32.484Z, 50.11
2023-04-18T05:23:32.480Z, 50.06
2023-04-18T05:24:32.545Z, 49.83
2023-04-18T05:25:32.507Z, 49.40
2023-04-18T05:26:32.543Z, 48.87
2023-04-18T05:27:32.526Z, 48.44
2023-04-18T05:28:32.570Z, 48.13
2023-04-18T05:29:32.557Z, 47.88
2023-04-18T05:30:32.565Z, 47.61
2023-04-18T05:31:32.638Z, 47.33
2023-04-18T05:32:32.641Z, 47.15
2023-04-18T05:33:32.613Z, 46.90
2023-04-18T05:34:32.608Z, 46.69
2023-04-18T05:35:32.679Z, 46.51
2023-04-18T05:36:32.636Z, 46.35
2023-04-18T05:37:32.636Z, 46.15
2023-04-18T05:38:32.650Z, 45.94
2023-04-18T05:39:32.719Z, 45.82
2023-04-18T05:40:32.707Z, 45.65
2023-04-18T05:41:32.712Z, 45.50
2023-04-18T05:42:32.739Z, 45.33
2023-04-18T05:43:32.720Z, 45.21
2023-04-18T05:44:32.808Z, 45.05
2023-04-18T05:45:32.781Z, 44.88
2023-04-18T05:46:32.837Z, 44.75
2023-04-18T05:47:32.826Z, 44.60
2023-04-18T05:48:32.784Z, 44.46
2023-04-18T05:49:32.882Z, 44.33
2023-04-18T05:50:32.894Z, 44.20
2023-04-18T05:51:32.905Z, 44.09
2023-04-18T05:52:32.884Z, 43.94
2023-04-18T05:53:32.928Z, 43.84
2023-04-18T05:54:32.906Z, 43.73
2023-04-18T05:55:32.996Z, 43.63
2023-04-18T05:56:32.977Z, 43.50
2023-04-18T05:57:32.978Z, 43.35
2023-04-18T05:58:32.973Z, 43.22
2023-04-18T05:59:32.988Z, 43.13
2023-04-18T06:00:32.973Z, 43.04
2023-04-18T06:01:32.975Z, 42.94
2023-04-18T06:02:33.055Z, 42.84
2023-04-18T06:03:33.332Z, 42.68
2023-04-18T06:04:33.204Z, 42.60
2023-04-18T06:05:33.118Z, 42.52
2023-04-18T06:06:33.037Z, 42.41
2023-04-18T06:07:33.024Z, 42.32
2023-04-18T06:08:33.135Z, 42.22
2023-04-18T06:09:33.083Z, 42.14
2023-04-18T06:10:33.098Z, 42.02
2023-04-18T06:11:33.154Z, 41.96
2023-04-18T06:12:33.118Z, 41.85
2023-04-18T06:13:33.122Z, 41.77
2023-04-18T06:14:33.146Z, 41.65
2023-04-18T06:15:33.155Z, 41.57
2023-04-18T06:16:33.202Z, 41.51
2023-04-18T06:17:33.286Z, 41.49
2023-04-18T06:18:33.205Z, 41.46
2023-04-18T06:19:33.204Z, 41.35
2023-04-18T06:20:33.203Z, 41.24
2023-04-18T06:21:33.217Z, 41.16
2023-04-18T06:22:33.224Z, 41.11
2023-04-18T06:23:33.240Z, 41.04
2023-04-18T06:24:33.256Z, 40.95
2023-04-18T06:25:33.262Z, 40.92
2023-04-18T06:26:33.277Z, 40.81
2023-04-18T06:27:33.294Z, 40.71
2023-04-18T06:28:33.288Z, 40.66
2023-04-18T06:29:33.357Z, 40.60
2023-04-18T06:30:33.326Z, 40.54
2023-04-18T06:31:33.353Z, 40.47
2023-04-18T06:32:33.480Z, 40.41
2023-04-18T06:33:33.345Z, 40.34
2023-04-18T06:34:33.431Z, 40.32
2023-04-18T06:35:33.397Z, 40.24
2023-04-18T06:36:33.415Z, 40.18
2023-04-18T06:37:33.423Z, 40.16
2023-04-18T06:38:33.429Z, 40.10
2023-04-18T06:39:33.431Z, 40.02
2023-04-18T06:40:33.447Z, 39.96
2023-04-18T06:41:33.527Z, 39.93
2023-04-18T06:42:33.510Z, 39.82
2023-04-18T06:43:33.576Z, 39.77
2023-04-18T06:44:33.551Z, 39.75
2023-04-18T06:45:33.628Z, 39.71
2023-04-18T06:46:33.579Z, 39.63
2023-04-18T06:47:33.643Z, 39.56
2023-04-18T06:48:33.590Z, 39.51
2023-04-18T06:49:33.598Z, 39.48
2023-04-18T06:50:33.590Z, 39.44
2023-04-18T06:51:33.589Z, 39.40
2023-04-18T06:52:33.602Z, 39.34
2023-04-18T06:53:33.651Z, 39.34
2023-04-18T06:54:33.626Z, 39.28
2023-04-18T06:55:33.638Z, 39.22
2023-04-18T06:56:36.225Z, 39.13
2023-04-18T06:57:33.658Z, 39.05
2023-04-18T06:58:33.712Z, 39.05
2023-04-18T06:59:33.705Z, 39.04
2023-04-18T07:00:33.716Z, 38.97
2023-04-18T07:01:33.928Z, 38.93
2023-04-18T07:02:33.825Z, 38.88
2023-04-18T07:03:33.802Z, 38.83
2023-04-18T07:04:33.806Z, 38.80
2023-04-18T07:05:33.860Z, 38.74
2023-04-18T07:06:33.823Z, 38.71
2023-04-18T07:07:33.841Z, 38.69
2023-04-18T07:08:33.835Z, 38.68
2023-04-18T07:09:33.888Z, 38.64
2023-04-18T07:10:33.860Z, 38.62
2023-04-18T07:11:33.871Z, 38.59
2023-04-18T07:12:33.875Z, 38.54
2023-04-18T07:13:33.882Z, 38.52
2023-04-18T07:14:34.390Z, 38.45
2023-04-18T07:15:33.906Z, 38.37
2023-04-18T07:16:33.985Z, 38.34
2023-04-18T07:17:33.996Z, 38.30
2023-04-18T07:18:37.992Z, 38.30
2023-04-18T07:19:33.968Z, 38.24
2023-04-18T07:20:33.989Z, 38.22
2023-04-18T07:21:33.972Z, 38.19
2023-04-18T07:22:33.985Z, 38.16
2023-04-18T07:23:34.005Z, 38.13
2023-04-18T07:24:33.990Z, 38.08
2023-04-18T07:25:34.045Z, 38.04
2023-04-18T07:26:34.004Z, 38.01
2023-04-18T07:27:34.096Z, 37.95
2023-04-18T07:28:34.067Z, 37.94
2023-04-18T07:29:34.119Z, 37.95
2023-04-18T07:30:34.090Z, 37.91
2023-04-18T07:31:34.229Z, 37.88
2023-04-18T07:32:34.116Z, 37.86
2023-04-18T07:33:34.108Z, 37.81
2023-04-18T07:34:34.116Z, 37.77
2023-04-18T07:35:34.129Z, 37.75
2023-04-18T07:36:34.170Z, 37.70
2023-04-18T07:37:34.144Z, 37.67
2023-04-18T07:38:34.234Z, 37.61
2023-04-18T07:39:34.219Z, 37.60
2023-04-18T07:40:34.209Z, 37.62
2023-04-18T07:41:34.251Z, 37.57
2023-04-18T07:42:34.247Z, 37.54
2023-04-18T07:43:34.251Z, 37.48
2023-04-18T07:44:34.234Z, 37.49
2023-04-18T07:45:34.320Z, 37.44
2023-04-18T07:46:34.358Z, 37.41
2023-04-18T07:47:34.351Z, 37.41
2023-04-18T07:48:34.315Z, 37.38
2023-04-18T07:49:34.324Z, 37.38
2023-04-18T07:50:34.316Z, 37.32
2023-04-18T07:51:34.317Z, 37.26
2023-04-18T07:52:34.316Z, 37.21
2023-04-18T07:53:34.326Z, 37.20
2023-04-18T07:54:34.399Z, 37.15
2023-04-18T07:55:34.378Z, 37.13
2023-04-18T07:56:34.440Z, 37.08
2023-04-18T07:57:34.427Z, 37.11
2023-04-18T07:58:34.419Z, 37.11
2023-04-18T07:59:34.423Z, 37.08
2023-04-18T08:00:34.422Z, 37.05
2023-04-18T08:01:34.510Z, 37.03
2023-04-18T08:02:34.630Z, 37.02
2023-04-18T08:03:34.602Z, 36.96
2023-04-18T08:04:34.609Z, 36.90
2023-04-18T08:05:34.748Z, 36.85
2023-04-18T08:06:34.556Z, 36.85
2023-04-18T08:07:34.580Z, 36.87
2023-04-18T08:08:34.558Z, 36.81
2023-04-18T08:09:34.625Z, 36.79
2023-04-18T08:10:34.583Z, 36.77
2023-04-18T08:11:34.639Z, 36.76
2023-04-18T08:12:34.593Z, 36.71
2023-04-18T08:13:34.603Z, 36.72
2023-04-18T08:14:34.604Z, 36.68
2023-04-18T08:15:34.612Z, 36.71
2023-04-18T08:16:34.660Z, 36.69
2023-04-18T08:17:34.666Z, 36.68
2023-04-18T08:18:34.733Z, 36.58
2023-04-18T08:19:34.684Z, 36.55
2023-04-18T08:20:34.713Z, 36.51
2023-04-18T08:21:34.697Z, 36.47
2023-04-18T08:22:34.703Z, 36.48
2023-04-18T08:23:34.793Z, 36.48
2023-04-18T08:24:34.749Z, 36.43
2023-04-18T08:25:34.801Z, 36.44
2023-04-18T08:26:34.795Z, 36.44
2023-04-18T08:27:34.787Z, 36.39
2023-04-18T08:28:34.806Z, 36.35
2023-04-18T08:29:34.793Z, 36.36
2023-04-18T08:30:34.817Z, 36.34
2023-04-18T08:31:34.893Z, 36.29
2023-04-18T08:32:34.950Z, 36.23
2023-04-18T08:33:34.887Z, 36.21
2023-04-18T08:34:34.922Z, 36.19
2023-04-18T08:35:34.890Z, 36.15
2023-04-18T08:36:34.901Z, 36.16
2023-04-18T08:37:34.899Z, 36.14
2023-04-18T08:38:34.931Z, 36.11
2023-04-18T08:39:34.979Z, 36.14
2023-04-18T08:40:34.973Z, 36.10
2023-04-18T08:41:34.984Z, 36.06
2023-04-18T08:42:34.966Z, 36.00
2023-04-18T08:43:34.979Z, 35.99
2023-04-18T08:44:34.966Z, 35.97
2023-04-18T08:45:35.022Z, 35.95
2023-04-18T08:46:34.976Z, 35.96
2023-04-18T08:47:35.031Z, 35.94
2023-04-18T08:48:35.005Z, 35.92
2023-04-18T08:49:35.021Z, 35.90
2023-04-18T08:50:35.037Z, 35.88
2023-04-18T08:51:35.042Z, 35.85
2023-04-18T08:52:35.053Z, 35.82
2023-04-18T08:53:35.067Z, 35.78
2023-04-18T08:54:35.091Z, 35.74
2023-04-18T08:59:36.001Z, 35.63
2023-04-18T09:00:35.281Z, 35.61
2023-04-18T09:01:35.264Z, 35.59
2023-04-18T09:02:35.366Z, 35.60
2023-04-18T09:03:35.299Z, 35.57
2023-04-18T09:04:35.378Z, 35.57
2023-04-18T09:05:35.246Z, 35.61
2023-04-18T09:06:35.297Z, 35.55
2023-04-18T09:07:35.291Z, 35.54
2023-04-18T09:08:35.290Z, 35.49
2023-04-18T09:09:35.292Z, 35.48
2023-04-18T09:10:35.285Z, 35.48
2023-04-18T09:11:35.347Z, 35.41
2023-04-18T09:12:35.361Z, 35.42
2023-04-18T09:13:35.370Z, 35.43
2023-04-18T09:14:35.353Z, 35.41
2023-04-18T09:15:35.374Z, 35.37
2023-04-18T09:16:35.488Z, 35.33
2023-04-18T09:17:35.446Z, 35.31
2023-04-18T09:18:35.398Z, 35.31
2023-04-18T09:19:35.398Z, 35.32
2023-04-18T09:20:35.402Z, 35.30
2023-04-18T09:21:35.401Z, 35.25
2023-04-18T09:22:35.500Z, 35.26
2023-04-18T09:23:35.489Z, 35.22
2023-04-18T09:24:35.480Z, 35.22
2023-04-18T09:25:35.483Z, 35.17
2023-04-18T09:26:35.487Z, 35.15
2023-04-18T09:27:35.568Z, 35.12
2023-04-18T09:28:35.567Z, 35.07
2023-04-18T09:29:35.596Z, 35.05
2023-04-18T09:30:35.668Z, 35.06
2023-04-18T09:31:35.672Z, 35.06
2023-04-18T09:32:35.664Z, 35.10
2023-04-18T09:33:35.665Z, 35.08
2023-04-18T09:34:35.625Z, 35.05
2023-04-18T09:35:35.677Z, 35.01
2023-04-18T09:36:35.681Z, 34.97
2023-04-18T09:37:35.655Z, 34.98
2023-04-18T09:38:35.671Z, 34.95
2023-04-18T09:39:35.670Z, 34.91
2023-04-18T09:40:35.708Z, 34.92
2023-04-18T09:41:35.692Z, 34.92
2023-04-18T09:42:35.796Z, 34.90
2023-04-18T09:43:35.801Z, 34.91
2023-04-18T09:44:35.783Z, 34.84
2023-04-18T09:45:35.777Z, 34.83
2023-04-18T09:46:35.882Z, 34.79
2023-04-18T09:47:35.872Z, 34.82
2023-04-18T09:48:35.824Z, 34.82
2023-04-18T09:49:35.887Z, 34.74
2023-04-18T09:50:35.847Z, 34.70
2023-04-18T09:51:35.854Z, 34.70
2023-04-18T09:52:35.849Z, 34.74
2023-04-18T09:53:35.853Z, 34.75
2023-04-18T09:54:35.858Z, 34.71
2023-04-18T09:55:35.856Z, 34.72
2023-04-18T09:56:35.912Z, 34.72
2023-04-18T09:57:35.880Z, 34.66
2023-04-18T09:58:35.942Z, 34.60
2023-04-18T09:59:35.930Z, 34.60
2023-04-18T10:00:35.931Z, 34.64
2023-04-18T10:01:35.998Z, 35.14
2023-04-18T10:02:35.982Z, 36.04
2023-04-18T10:03:36.044Z, 36.35
2023-04-18T10:04:36.169Z, 36.44
2023-04-18T10:05:36.107Z, 36.34
2023-04-18T10:06:36.025Z, 36.09
2023-04-18T10:07:36.022Z, 35.66
2023-04-18T10:08:36.043Z, 35.13
2023-04-18T10:09:36.027Z, 34.55
2023-04-18T10:10:36.752Z, 34.00
2023-04-18T10:11:36.071Z, 33.55
2023-04-18T10:12:36.058Z, 33.13
2023-04-18T10:13:36.066Z, 32.71
2023-04-18T10:14:36.169Z, 32.03
2023-04-18T10:15:36.180Z, 30.77
2023-04-18T10:16:36.525Z, 29.15
2023-04-18T10:17:36.161Z, 27.66
2023-04-18T10:18:36.201Z, 29.59
2023-04-18T10:19:36.156Z, 34.95
2023-04-18T10:20:36.271Z, 39.29
2023-04-18T10:21:36.259Z, 42.27
2023-04-18T10:22:36.241Z, 41.98
2023-04-18T10:23:36.356Z, 40.45
2023-04-18T10:24:36.264Z, 39.25
2023-04-18T10:25:36.296Z, 37.82
2023-04-18T10:26:36.281Z, 36.43
2023-04-18T10:27:36.305Z, 35.29
2023-04-18T10:28:36.286Z, 34.40
2023-04-18T10:29:36.327Z, 33.59
2023-04-18T10:30:36.310Z, 32.94
2023-04-18T10:31:36.342Z, 33.17
2023-04-18T10:32:36.402Z, 34.59
2023-04-18T10:33:37.092Z, 38.63
2023-04-18T10:34:36.324Z, 42.66
2023-04-18T10:35:36.336Z, 46.46
2023-04-18T10:36:36.385Z, 50.88
2023-04-18T10:37:36.357Z, 54.86
2023-04-18T10:38:36.466Z, 58.87
2023-04-18T10:39:36.438Z, 68.14
2023-04-18T10:40:36.430Z, 55.23
2023-04-18T10:41:36.452Z, 52.24
2023-04-18T10:42:36.448Z, 53.20
2023-04-18T10:43:36.517Z, 54.29
2023-04-18T10:44:36.510Z, 56.35
2023-04-18T10:45:36.606Z, 58.97
2023-04-18T10:46:36.586Z, 66.76
2023-04-18T10:47:36.729Z, 57.91
2023-04-18T10:48:38.619Z, 53.25
2023-04-18T10:49:36.620Z, 54.49
2023-04-18T10:50:36.562Z, 55.51
2023-04-18T10:51:36.568Z, 56.49
2023-04-18T10:52:36.566Z, 57.32
2023-04-18T10:53:36.599Z, 57.95
2023-04-18T10:54:36.611Z, 58.32
2023-04-18T10:55:36.598Z, 58.54
2023-04-18T10:56:36.663Z, 58.75
2023-04-18T10:57:36.616Z, 58.83
2023-04-18T10:58:36.643Z, 58.86
2023-04-18T10:59:36.633Z, 58.74
2023-04-18T11:00:36.678Z, 58.73
2023-04-18T11:01:36.778Z, 58.63
2023-04-18T11:02:36.963Z, 58.57
2023-04-18T11:03:36.800Z, 58.47
2023-04-18T11:04:36.790Z, 58.31
2023-04-18T11:05:36.753Z, 58.16
2023-04-18T11:06:36.787Z, 58.07
2023-04-18T11:07:36.770Z, 57.98
2023-04-18T11:08:36.785Z, 57.80
2023-04-18T11:09:36.793Z, 57.59
2023-04-18T11:10:36.800Z, 57.56
2023-04-18T11:11:36.875Z, 57.33
2023-04-18T11:12:36.854Z, 57.23
2023-04-18T11:13:36.939Z, 57.05
2023-04-18T11:14:36.882Z, 56.91
2023-04-18T11:15:36.929Z, 56.80
2023-04-18T11:16:36.956Z, 56.60
2023-04-18T11:17:36.998Z, 56.35
2023-04-18T11:18:36.949Z, 56.26
2023-04-18T11:19:36.941Z, 56.11
2023-04-18T11:20:36.974Z, 55.96
2023-04-18T11:21:36.949Z, 55.79
2023-04-18T11:22:36.954Z, 55.62
2023-04-18T11:23:36.966Z, 55.47
2023-04-18T11:24:36.954Z, 55.34
2023-04-18T11:25:36.995Z, 55.23
2023-04-18T11:26:37.283Z, 55.09
2023-04-18T11:27:36.992Z, 54.97
2023-04-18T11:28:37.012Z, 54.79
2023-04-18T11:29:37.113Z, 54.63
2023-04-18T11:30:37.070Z, 54.53
2023-04-18T11:31:37.184Z, 54.43
2023-04-18T11:32:37.171Z, 54.32
2023-04-18T11:33:37.135Z, 54.17
2023-04-18T11:34:37.116Z, 54.00
2023-04-18T11:35:37.135Z, 53.98
2023-04-18T11:36:37.132Z, 53.89
2023-04-18T11:37:37.175Z, 53.77
2023-04-18T11:38:37.251Z, 53.63
2023-04-18T11:39:37.198Z, 53.52
2023-04-18T11:40:37.215Z, 53.41
2023-04-18T11:41:37.197Z, 53.25
2023-04-18T11:42:37.262Z, 53.18
2023-04-18T11:43:37.227Z, 53.04
2023-04-18T11:44:37.229Z, 52.91
2023-04-18T11:45:37.332Z, 52.83
2023-04-18T11:46:37.297Z, 52.79
2023-04-18T11:47:37.283Z, 52.63
2023-04-18T11:48:37.373Z, 52.57
2023-04-18T11:49:37.340Z, 52.45
2023-04-18T11:50:37.362Z, 52.32
2023-04-18T11:51:37.345Z, 52.24
2023-04-18T11:52:37.385Z, 52.11
2023-04-18T11:53:37.352Z, 52.05
2023-04-18T11:54:37.353Z, 51.92
2023-04-18T11:55:37.427Z, 51.80
2023-04-18T11:56:37.456Z, 51.73
2023-04-18T11:57:37.443Z, 51.67
2023-04-18T11:58:37.434Z, 51.54
2023-04-18T11:59:37.415Z, 51.58
2023-04-18T12:00:37.457Z, 51.45
2023-04-18T12:01:37.461Z, 51.36
2023-04-18T12:02:37.583Z, 51.27
2023-04-18T12:03:37.599Z, 51.26
2023-04-18T12:04:37.706Z, 51.10
2023-04-18T12:05:38.013Z, 50.98
2023-04-18T12:06:37.596Z, 50.85
2023-04-18T12:07:37.577Z, 50.86
2023-04-18T12:08:37.568Z, 50.78
2023-04-18T12:09:37.561Z, 50.62
2023-04-18T12:10:37.619Z, 50.62
2023-04-18T12:11:37.591Z, 50.48
2023-04-18T12:12:37.649Z, 50.40
2023-04-18T12:13:37.638Z, 50.27
2023-04-18T12:14:37.645Z, 50.28
2023-04-18T12:15:37.648Z, 50.22
2023-04-18T12:16:37.865Z, 50.13
2023-04-18T12:17:37.728Z, 50.06
2023-04-18T12:18:37.661Z, 49.93
2023-04-18T12:19:37.737Z, 49.85
2023-04-18T12:20:37.709Z, 49.81
2023-04-18T12:21:37.768Z, 49.76
2023-04-18T12:22:37.726Z, 49.66
2023-04-18T12:23:37.772Z, 49.62
2023-04-18T12:24:37.762Z, 49.49
2023-04-18T12:25:37.814Z, 49.37
2023-04-18T12:26:37.794Z, 49.39
2023-04-18T12:27:37.843Z, 49.22
2023-04-18T12:28:37.827Z, 49.18
2023-04-18T12:29:37.853Z, 49.15
2023-04-18T12:30:37.952Z, 49.08
2023-04-18T12:31:37.889Z, 49.08
2023-04-18T12:32:37.917Z, 49.00
2023-04-18T12:33:37.855Z, 48.94
2023-04-18T12:34:37.861Z, 48.95
2023-04-18T12:35:37.903Z, 48.92
2023-04-18T12:36:37.883Z, 48.87
2023-04-18T12:37:37.886Z, 48.83
2023-04-18T12:38:37.927Z, 48.70
2023-04-18T12:39:37.923Z, 48.63
2023-04-18T12:40:38.001Z, 48.56
2023-04-18T12:41:37.975Z, 48.49
2023-04-18T12:42:37.971Z, 48.39
2023-04-18T12:43:37.984Z, 48.29
2023-04-18T12:44:37.963Z, 48.22
2023-04-18T12:45:38.030Z, 48.18
2023-04-18T12:46:38.050Z, 48.11
2023-04-18T12:47:38.095Z, 48.08
2023-04-18T12:48:38.041Z, 48.02
2023-04-18T12:49:38.063Z, 47.98
2023-04-18T12:50:38.057Z, 47.93
2023-04-18T12:51:38.087Z, 47.87
2023-04-18T12:52:38.088Z, 47.80
2023-04-18T12:53:38.082Z, 47.70
2023-04-18T12:54:38.159Z, 47.79
2023-04-18T12:55:38.154Z, 47.69
2023-04-18T12:56:38.146Z, 47.67
2023-04-18T12:57:38.140Z, 47.56
2023-04-18T12:58:38.186Z, 47.53
2023-04-18T12:59:38.176Z, 47.44
2023-04-18T13:00:38.234Z, 47.32
2023-04-18T13:01:38.229Z, 47.29
2023-04-18T13:02:38.278Z, 47.24
2023-04-18T13:03:38.386Z, 47.18
2023-04-18T13:04:38.555Z, 47.18
2023-04-18T13:05:38.314Z, 47.09
2023-04-18T13:06:38.277Z, 47.01
2023-04-18T13:07:38.330Z, 46.98
2023-04-18T13:08:38.308Z, 46.91
2023-04-18T13:09:38.398Z, 46.88
2023-04-18T13:10:38.318Z, 46.85
2023-04-18T13:11:38.399Z, 46.88
2023-04-18T13:12:38.362Z, 46.77
2023-04-18T13:13:38.439Z, 46.72
2023-04-18T13:14:38.377Z, 46.70
2023-04-18T13:15:38.372Z, 46.70
2023-04-18T13:16:38.456Z, 46.65
2023-04-18T13:17:38.466Z, 46.51
2023-04-18T13:18:38.522Z, 46.44
2023-04-18T13:19:38.467Z, 46.38
2023-04-18T13:20:38.455Z, 46.38
2023-04-18T13:21:38.451Z, 46.28
2023-04-18T13:22:38.471Z, 46.21
2023-04-18T13:23:38.550Z, 46.22
2023-04-18T13:24:38.528Z, 46.15
2023-04-18T13:25:38.566Z, 46.19
2023-04-18T13:26:38.546Z, 46.08
2023-04-18T13:27:41.408Z, 46.06
2023-04-18T13:28:38.566Z, 45.97
2023-04-18T13:29:38.616Z, 45.90
2023-04-18T13:30:38.586Z, 45.84
2023-04-18T13:31:38.656Z, 45.85
2023-04-18T13:32:38.631Z, 45.81
2023-04-18T13:33:38.594Z, 45.76
2023-04-18T13:34:38.595Z, 45.66
2023-04-18T13:35:38.633Z, 45.63
2023-04-18T13:36:38.666Z, 45.64
2023-04-18T13:37:38.668Z, 45.53
2023-04-18T13:38:38.702Z, 45.51
2023-04-18T13:39:38.679Z, 45.51
2023-04-18T13:40:38.692Z, 45.49
2023-04-18T13:41:38.701Z, 45.45
2023-04-18T13:42:38.714Z, 45.46
2023-04-18T13:43:38.790Z, 45.36
2023-04-18T13:44:38.764Z, 45.30
2023-04-18T13:45:38.834Z, 45.24
2023-04-18T13:46:38.792Z, 45.26
2023-04-18T13:47:38.894Z, 45.14
2023-04-18T13:48:38.832Z, 45.11
2023-04-18T13:49:38.854Z, 45.07
2023-04-18T13:50:38.830Z, 45.03
2023-04-18T13:51:38.864Z, 44.99
2023-04-18T13:52:38.851Z, 44.87
2023-04-18T13:53:38.855Z, 44.87
2023-04-18T13:54:38.864Z, 44.87
2023-04-18T13:55:38.865Z, 44.90
2023-04-18T13:56:38.885Z, 44.90
2023-04-18T13:57:38.899Z, 44.89
2023-04-18T13:58:38.999Z, 44.82
2023-04-18T13:59:38.965Z, 44.76
2023-04-18T14:00:38.974Z, 44.71
2023-04-18T14:01:39.035Z, 44.69
2023-04-18T14:02:39.064Z, 44.69
2023-04-18T14:03:42.193Z, 44.60
2023-04-18T14:04:39.149Z, 44.54
2023-04-18T14:05:39.027Z, 44.54